Time;durP1;ratioP1;P1;durP2;ratioP2;P2;SDS_P1;SDS_P2;PMS_P1;PMS_P2;Temp;Humidity;BMP_temperature;BMP_pressure;BME280_temperature;BME280_humidity;BME280_pressure;Samples;Min_cycle;Max_cycle;Signal;HPM_P1;HPM_P2
2022/03/22 00:00:42;;;;;;;181.10;88.28;;;-0.30;1.00;;;;;;5074095;28;20073;-70
2022/03/22 00:03:10;;;;;;;183.75;89.85;;;-0.40;1.00;;;;;;5072835;28;20075;-73
2022/03/22 00:05:40;;;;;;;214.98;102.97;;;-0.40;1.00;;;;;;5074873;28;20098;-72
2022/03/22 00:08:08;;;;;;;225.50;109.45;;;-0.40;1.00;;;;;;5097428;28;20040;-73
2022/03/22 00:10:36;;;;;;;222.93;110.68;;;-0.40;1.00;;;;;;5112665;28;20040;-73
2022/03/22 00:13:06;;;;;;;196.63;104.53;;;-0.50;1.00;;;;;;5110778;28;20055;-73
2022/03/22 00:15:34;;;;;;;189.30;101.00;;;-0.60;1.00;;;;;;5113109;28;20057;-73
2022/03/22 00:18:02;;;;;;;192.32;99.93;;;-0.70;1.00;;;;;;5113556;28;20038;-71
2022/03/22 00:20:29;;;;;;;171.32;88.82;;;-0.80;1.00;;;;;;5105715;28;20086;-73
2022/03/22 00:22:58;;;;;;;160.55;81.22;;;-0.80;1.00;;;;;;5093229;28;20040;-73
2022/03/22 00:25:27;;;;;;;149.38;78.75;;;-0.80;1.00;;;;;;5096780;28;20097;-73
2022/03/22 00:27:55;;;;;;;140.30;76.18;;;-0.80;1.00;;;;;;5116100;28;20529;-72
2022/03/22 00:30:26;;;;;;;144.18;80.38;;;-0.80;1.00;;;;;;5114429;28;20090;-73
2022/03/22 00:32:55;;;;;;;137.57;75.05;;;-0.70;1.00;;;;;;5101622;28;20134;-72
2022/03/22 00:35:24;;;;;;;154.77;81.88;;;-0.70;1.00;;;;;;5091740;28;20050;-72
2022/03/22 00:37:53;;;;;;;149.80;77.75;;;-0.70;1.00;;;;;;5090756;28;20054;-72
2022/03/22 00:40:22;;;;;;;148.40;78.32;;;-0.70;1.00;;;;;;5094157;28;20387;-73
2022/03/22 00:42:53;;;;;;;154.77;78.03;;;-0.60;1.00;;;;;;5092286;28;20056;-73
2022/03/22 00:45:25;;;;;;;149.05;78.75;;;-0.70;1.00;;;;;;5093999;28;20487;-72
2022/03/22 00:47:54;;;;;;;161.07;82.53;;;-0.70;1.00;;;;;;5094065;28;20040;-72
2022/03/22 00:50:24;;;;;;;172.60;91.50;;;-0.70;1.00;;;;;;5093669;28;20114;-71
2022/03/22 00:52:52;;;;;;;179.43;89.40;;;-0.70;1.00;;;;;;5093676;28;20120;-71
2022/03/22 00:55:21;;;;;;;172.73;90.35;;;-0.80;1.00;;;;;;5078576;28;20400;-72
2022/03/22 00:57:49;;;;;;;190.60;96.00;;;-0.90;1.00;;;;;;5073522;28;20072;-73
2022/03/22 01:00:17;;;;;;;209.35;107.93;;;-0.90;1.00;;;;;;5073694;28;20043;-73
2022/03/22 01:02:49;;;;;;;202.32;106.43;;;-1.00;1.00;;;;;;5073402;28;20102;-72
2022/03/22 01:05:19;;;;;;;206.07;106.05;;;-1.00;1.00;;;;;;5072975;28;20071;-71
2022/03/22 01:07:48;;;;;;;209.77;105.57;;;-1.00;1.00;;;;;;5073716;28;20517;-73
2022/03/22 01:10:18;;;;;;;188.95;96.65;;;-1.10;1.00;;;;;;5072412;28;20143;-72
2022/03/22 01:12:47;;;;;;;202.57;104.45;;;-1.20;1.00;;;;;;5071748;28;20473;-72
2022/03/22 01:15:18;;;;;;;187.88;98.43;;;-1.20;1.00;;;;;;5073458;28;20060;-72
2022/03/22 01:17:48;;;;;;;162.07;84.65;;;-1.20;1.00;;;;;;5071929;28;20056;-72
2022/03/22 01:20:16;;;;;;;145.07;75.65;;;-1.20;1.00;;;;;;5073637;28;20049;-73
2022/03/22 01:22:46;;;;;;;124.80;67.18;;;-1.10;1.00;;;;;;5071808;28;20049;-72
2022/03/22 01:25:16;;;;;;;130.57;68.88;;;-1.10;1.00;;;;;;5073374;28;20074;-72
2022/03/22 01:27:46;;;;;;;128.30;67.25;;;-1.10;1.00;;;;;;5071702;28;20080;-72
2022/03/22 01:30:15;;;;;;;151.65;78.20;;;-1.20;1.00;;;;;;5072010;28;20053;-72
2022/03/22 01:32:43;;;;;;;178.73;84.80;;;-1.30;1.00;;;;;;5073238;28;20056;-72
2022/03/22 01:35:12;;;;;;;144.85;72.13;;;-1.30;1.00;;;;;;5072896;28;20071;-71
2022/03/22 01:37:40;;;;;;;128.40;67.72;;;-1.30;1.00;;;;;;5073300;28;20051;-72
2022/03/22 01:40:10;;;;;;;117.30;63.22;;;-1.40;1.00;;;;;;5072122;28;20567;-72
2022/03/22 01:42:37;;;;;;;123.47;66.47;;;-1.50;1.00;;;;;;5073053;28;20044;-72
2022/03/22 01:45:07;;;;;;;128.73;66.65;;;-1.40;1.00;;;;;;5073307;28;20064;-72
2022/03/22 01:47:35;;;;;;;127.93;68.22;;;-1.50;1.00;;;;;;5073046;28;20047;-72
2022/03/22 01:50:03;;;;;;;128.20;65.13;;;-1.60;1.00;;;;;;5072389;28;20051;-73
2022/03/22 01:52:34;;;;;;;122.97;63.88;;;-1.60;1.00;;;;;;5072605;28;20051;-73
2022/03/22 01:55:03;;;;;;;116.72;62.28;;;-1.60;1.00;;;;;;5073281;28;20047;-72
2022/03/22 01:57:33;;;;;;;125.22;64.22;;;-1.60;1.00;;;;;;5073550;28;20059;-72
2022/03/22 02:00:02;;;;;;;120.25;62.10;;;-1.60;1.00;;;;;;5072845;28;20049;-73
2022/03/22 02:08:04;;;;;;;91.57;47.42;;;-1.50;1.00;;;;;;5076536;28;20134;-72
2022/03/22 02:10:31;;;;;;;110.13;52.95;;;-1.50;1.00;;;;;;5074766;28;20106;-73
2022/03/22 02:12:59;;;;;;;102.53;51.80;;;-1.50;1.00;;;;;;5074645;28;20036;-72
2022/03/22 02:15:26;;;;;;;114.35;57.40;;;-1.50;1.00;;;;;;5076074;28;20055;-73
2022/03/22 02:17:54;;;;;;;119.05;59.13;;;-1.60;1.00;;;;;;5074716;28;20044;-73
2022/03/22 02:20:23;;;;;;;122.82;59.45;;;-1.60;1.00;;;;;;5075983;28;20068;-72
2022/03/22 02:22:53;;;;;;;123.07;60.47;;;-1.60;1.00;;;;;;5075798;28;20403;-73
2022/03/22 02:25:22;;;;;;;115.40;58.63;;;-1.60;1.00;;;;;;5075033;28;20044;-72
2022/03/22 02:27:52;;;;;;;122.15;60.47;;;-1.70;1.00;;;;;;5074936;28;20059;-72
2022/03/22 02:30:20;;;;;;;108.10;55.72;;;-1.70;1.00;;;;;;5087967;28;20044;-72
2022/03/22 02:32:52;;;;;;;108.18;55.50;;;-1.60;1.00;;;;;;5097571;28;20111;-72
2022/03/22 02:35:21;;;;;;;105.70;51.92;;;-1.70;1.00;;;;;;5084159;28;20568;-72
2022/03/22 02:37:49;;;;;;;96.82;48.58;;;-1.70;1.00;;;;;;5087884;28;20052;-71
2022/03/22 02:40:17;;;;;;;98.38;48.45;;;-1.70;1.00;;;;;;5082896;28;20070;-72
2022/03/22 02:42:49;;;;;;;101.50;49.20;;;-1.70;1.00;;;;;;5081675;28;20037;-73
2022/03/22 02:45:18;;;;;;;102.05;48.80;;;-1.70;1.00;;;;;;5084695;28;20044;-72
2022/03/22 02:47:46;;;;;;;96.63;47.50;;;-1.80;1.00;;;;;;5077959;28;20053;-72
2022/03/22 02:50:14;;;;;;;84.35;41.65;;;-1.90;1.00;;;;;;5075522;28;20043;-72
2022/03/22 02:52:42;;;;;;;88.88;40.60;;;-1.90;1.00;;;;;;5073686;28;20050;-74
2022/03/22 02:55:11;;;;;;;104.97;50.08;;;-2.00;1.00;;;;;;5075784;28;20045;-71
2022/03/22 02:57:40;;;;;;;122.68;59.58;;;-2.10;1.00;;;;;;5074102;28;20098;-72
2022/03/22 03:00:11;;;;;;;137.02;66.82;;;-2.10;1.00;;;;;;5075489;28;20045;-72
2022/03/22 03:02:43;;;;;;;142.45;68.57;;;-2.10;1.00;;;;;;5075039;28;20067;-72
2022/03/22 03:05:11;;;;;;;138.32;70.18;;;-2.30;1.00;;;;;;5073874;28;20514;-73
2022/03/22 03:07:39;;;;;;;121.13;65.00;;;-2.30;1.00;;;;;;5074729;28;20052;-72
2022/03/22 03:10:07;;;;;;;109.85;61.17;;;-2.40;1.00;;;;;;5076525;28;20094;-73
2022/03/22 03:12:35;;;;;;;105.07;58.63;;;-2.40;1.00;;;;;;5075876;28;20045;-73
2022/03/22 03:15:05;;;;;;;103.72;53.10;;;-2.40;1.00;;;;;;5075730;28;20406;-73
2022/03/22 03:17:34;;;;;;;99.03;52.95;;;-2.50;1.00;;;;;;5076127;28;20041;-72
2022/03/22 03:20:02;;;;;;;96.13;52.75;;;-2.50;1.00;;;;;;5077268;28;20036;-72
2022/03/22 03:22:29;;;;;;;93.22;52.00;;;-2.40;1.00;;;;;;5077297;28;20060;-73
2022/03/22 03:24:57;;;;;;;92.72;50.67;;;-2.30;1.00;;;;;;5078083;28;20100;-72
2022/03/22 03:27:24;;;;;;;94.43;49.17;;;-2.20;1.00;;;;;;5075989;28;20044;-73
2022/03/22 03:29:53;;;;;;;86.55;48.38;;;-2.10;1.00;;;;;;5079586;28;20044;-73
2022/03/22 03:32:20;;;;;;;88.10;49.33;;;-2.20;1.00;;;;;;5078793;28;20044;-72
2022/03/22 03:34:49;;;;;;;94.78;49.17;;;-2.20;1.00;;;;;;5077281;28;20072;-73
2022/03/22 03:37:17;;;;;;;102.40;55.00;;;-2.20;1.00;;;;;;5077297;28;20145;-72
2022/03/22 03:39:45;;;;;;;96.43;53.67;;;-2.20;1.00;;;;;;5078196;28;20062;-72
2022/03/22 03:42:12;;;;;;;100.38;52.85;;;-2.30;1.00;;;;;;5076097;28;20052;-74
2022/03/22 03:47:25;;;;;;;97.40;53.17;;;-2.30;1.00;;;;;;5077636;28;20119;-73
2022/03/22 03:49:59;;;;;;;104.07;56.42;;;-2.40;1.00;;;;;;5077984;28;20055;-73
2022/03/22 03:52:28;;;;;;;97.07;54.75;;;-2.40;1.00;;;;;;5075787;28;20052;-73
2022/03/22 03:54:55;;;;;;;103.72;58.22;;;-2.40;1.00;;;;;;5076321;28;20102;-73
2022/03/22 03:57:24;;;;;;;100.28;53.50;;;-2.40;1.00;;;;;;5074805;28;20044;-73
2022/03/22 03:59:52;;;;;;;102.47;54.55;;;-2.50;1.00;;;;;;5074321;28;20053;-73
2022/03/22 04:02:20;;;;;;;97.25;51.10;;;-2.50;1.00;;;;;;5075691;28;20086;-73
2022/03/22 04:04:51;;;;;;;95.95;49.67;;;-2.60;1.00;;;;;;5073071;28;20052;-72
2022/03/22 04:07:22;;;;;;;103.45;53.45;;;-2.60;1.00;;;;;;5074537;28;20047;-73
2022/03/22 04:09:50;;;;;;;109.43;55.28;;;-2.70;1.00;;;;;;5074764;28;20115;-72
2022/03/22 04:12:19;;;;;;;111.18;55.00;;;-2.80;1.00;;;;;;5073685;28;20059;-73
2022/03/22 04:14:48;;;;;;;89.90;50.55;;;-2.80;1.00;;;;;;5072699;28;20131;-73
2022/03/22 04:17:16;;;;;;;97.80;52.28;;;-2.70;1.00;;;;;;5072570;28;20044;-73
2022/03/22 04:19:45;;;;;;;93.28;50.17;;;-2.70;1.00;;;;;;5073914;28;20044;-72
2022/03/22 04:22:12;;;;;;;91.65;48.70;;;-2.70;1.00;;;;;;5073843;28;20048;-73
2022/03/22 04:24:41;;;;;;;95.60;47.83;;;-2.70;1.00;;;;;;5073929;28;20127;-72
2022/03/22 04:32:45;;;;;;;98.03;50.72;;;-2.50;1.00;;;;;;5074109;28;20123;-73
2022/03/22 04:35:14;;;;;;;96.13;53.25;;;-2.50;1.00;;;;;;5095320;28;20053;-73
2022/03/22 04:37:42;;;;;;;100.72;53.03;;;-2.50;1.00;;;;;;5090494;28;20048;-72
2022/03/22 04:40:12;;;;;;;110.18;57.80;;;-2.50;1.00;;;;;;5074217;28;20051;-72
2022/03/22 04:42:40;;;;;;;114.57;58.60;;;-2.50;1.00;;;;;;5073784;28;20051;-72
2022/03/22 04:45:09;;;;;;;115.05;62.53;;;-2.60;1.00;;;;;;5072538;28;20046;-71
2022/03/22 04:47:37;;;;;;;121.85;66.13;;;-2.70;1.00;;;;;;5072313;28;20138;-73
2022/03/22 04:50:05;;;;;;;124.05;65.25;;;-2.80;1.00;;;;;;5074195;28;20406;-72
2022/03/22 04:58:04;;;;;;;;;;;-2.70;1.00;;;;;;5072996;28;20044;-72
2022/03/22 05:00:34;;;;;;;89.65;53.00;;;-2.60;1.00;;;;;;5074411;28;19927;-72
2022/03/22 05:03:01;;;;;;;95.38;53.58;;;-2.60;1.00;;;;;;5074699;28;20461;-73
2022/03/22 05:08:14;;;;;;;91.32;48.00;;;-2.70;1.00;;;;;;5074223;28;20445;-72
2022/03/22 05:10:43;;;;;;;111.93;55.60;;;-2.60;1.00;;;;;;5074172;28;20383;-73
2022/03/22 05:13:11;;;;;;;94.50;50.90;;;-2.60;1.00;;;;;;5073182;28;20044;-73
2022/03/22 05:15:38;;;;;;;96.82;53.15;;;-2.60;1.00;;;;;;5074206;28;20049;-73
2022/03/22 05:18:06;;;;;;;110.03;58.60;;;-2.60;1.00;;;;;;5073355;28;20068;-72
2022/03/22 05:20:33;;;;;;;82.63;42.63;;;-2.50;1.00;;;;;;5073621;28;20036;-71
2022/03/22 05:23:01;;;;;;;85.30;45.17;;;-2.40;1.00;;;;;;5073479;28;20053;-72
2022/03/22 05:25:31;;;;;;;95.88;49.40;;;-2.30;1.00;;;;;;5074029;28;20419;-73
2022/03/22 05:28:03;;;;;;;115.65;55.70;;;-2.20;1.00;;;;;;5075020;28;20086;-71
2022/03/22 05:30:31;;;;;;;120.20;59.25;;;-2.10;1.00;;;;;;5076833;28;20403;-71
2022/03/22 05:33:00;;;;;;;127.75;63.90;;;-2.10;1.00;;;;;;5085817;28;20074;-72
2022/03/22 05:35:29;;;;;;;134.40;68.57;;;-2.00;1.00;;;;;;5085036;28;20083;-73
2022/03/22 05:37:56;;;;;;;136.25;67.35;;;-2.00;1.00;;;;;;5086976;28;20487;-72
2022/03/22 05:40:24;;;;;;;131.25;66.07;;;-2.00;1.00;;;;;;5095148;28;20045;-72
2022/03/22 05:42:52;;;;;;;140.43;69.80;;;-1.90;1.00;;;;;;5091119;28;20062;-72
2022/03/22 05:45:21;;;;;;;136.57;70.05;;;-1.80;1.00;;;;;;5090793;28;20041;-72
2022/03/22 05:47:49;;;;;;;138.13;69.05;;;-1.70;1.00;;;;;;5088460;28;20123;-72
2022/03/22 05:50:16;;;;;;;143.50;69.28;;;-1.70;1.00;;;;;;5077923;28;20042;-71
2022/03/22 05:52:45;;;;;;;138.52;72.55;;;-1.60;1.00;;;;;;5076345;28;20058;-72
2022/03/22 05:55:13;;;;;;;153.82;74.68;;;-1.50;1.00;;;;;;5076783;28;20074;-73
2022/03/22 05:57:41;;;;;;;171.20;84.50;;;-1.40;1.00;;;;;;5076718;28;20058;-72
2022/03/22 06:00:10;;;;;;;163.10;75.60;;;-1.30;1.00;;;;;;5077915;28;20060;-72
2022/03/22 06:02:40;;;;;;;196.25;86.63;;;-1.20;1.00;;;;;;5077559;28;20052;-72
2022/03/22 06:05:09;;;;;;;247.23;104.60;;;-1.00;1.00;;;;;;5078356;28;20044;-73
2022/03/22 06:07:37;;;;;;;261.60;102.03;;;-0.90;1.00;;;;;;5087352;28;20119;-73
2022/03/22 06:10:05;;;;;;;240.75;97.90;;;-0.60;1.00;;;;;;5078078;28;20093;-73
2022/03/22 06:12:39;;;;;;;221.82;88.53;;;-0.60;1.00;;;;;;5078426;28;20109;-72
2022/03/22 06:15:17;;;;;;;219.68;88.15;;;-0.40;1.00;;;;;;5088719;28;20499;-72
2022/03/22 06:17:50;;;;;;;233.43;91.15;;;-0.30;1.00;;;;;;5077134;28;20044;-73
2022/03/22 06:20:19;;;;;;;181.60;75.60;;;0.00;1.00;;;;;;5076777;28;20127;-73
2022/03/22 06:22:48;;;;;;;131.65;64.55;;;0.30;1.00;;;;;;5086751;28;20395;-73
2022/03/22 06:25:17;;;;;;;131.38;67.00;;;0.70;1.00;;;;;;5077178;28;20108;-74
2022/03/22 06:27:46;;;;;;;125.72;63.97;;;1.10;1.00;;;;;;5096978;28;20105;-72
2022/03/22 06:30:15;;;;;;;143.05;65.55;;;1.40;1.00;;;;;;5077341;28;20127;-73
2022/03/22 06:32:43;;;;;;;118.70;60.70;;;1.60;1.00;;;;;;5076679;28;20037;-72
2022/03/22 06:35:12;;;;;;;131.18;65.63;;;1.80;1.00;;;;;;5074319;28;20469;-74
2022/03/22 06:37:40;;;;;;;134.63;66.72;;;2.00;1.00;;;;;;5087583;28;20052;-73
2022/03/22 06:40:10;;;;;;;141.25;70.03;;;2.20;1.00;;;;;;5101938;28;20037;-73
2022/03/22 06:42:38;;;;;;;146.27;73.40;;;2.40;1.00;;;;;;5125278;28;20051;-74
2022/03/22 06:45:07;;;;;;;142.65;71.15;;;2.50;1.00;;;;;;5078980;28;20135;-72
2022/03/22 06:47:35;;;;;;;147.43;72.32;;;2.50;1.00;;;;;;5114645;28;20048;-73
2022/03/22 06:50:03;;;;;;;141.90;66.93;;;2.80;1.00;;;;;;5078707;28;20044;-72
2022/03/22 06:52:32;;;;;;;107.93;55.28;;;3.10;1.00;;;;;;5080768;28;20101;-74
2022/03/22 06:55:00;;;;;;;97.78;50.42;;;3.40;1.00;;;;;;5111700;28;20056;-73
2022/03/22 06:57:28;;;;;;;61.38;35.28;;;3.60;1.00;;;;;;5083244;28;20072;-74
2022/03/22 06:59:56;;;;;;;50.08;29.73;;;3.90;1.00;;;;;;5091191;28;20040;-73
2022/03/22 07:02:23;;;;;;;61.40;33.28;;;4.10;1.00;;;;;;5078404;28;20115;-74
2022/03/22 07:04:51;;;;;;;66.35;37.05;;;4.30;1.00;;;;;;5076937;28;20410;-74
2022/03/22 07:07:19;;;;;;;63.45;34.08;;;4.70;1.00;;;;;;5084813;28;20054;-74
2022/03/22 07:09:48;;;;;;;71.90;40.63;;;5.00;1.00;;;;;;5089238;28;20406;-74
2022/03/22 07:12:16;;;;;;;70.82;39.75;;;5.20;1.00;;;;;;5094752;28;20039;-74
2022/03/22 07:14:44;;;;;;;83.47;44.42;;;5.40;1.00;;;;;;5088865;28;20047;-73
2022/03/22 07:17:12;;;;;;;95.60;50.55;;;5.70;1.00;;;;;;5079309;28;20549;-73
2022/03/22 07:19:40;;;;;;;97.97;50.53;;;6.00;1.00;;;;;;5073712;28;20523;-73
2022/03/22 07:22:10;;;;;;;87.20;47.85;;;6.10;1.00;;;;;;5074961;28;20041;-74
2022/03/22 07:24:38;;;;;;;99.68;49.78;;;6.40;1.00;;;;;;5073231;28;20052;-74
2022/03/22 07:27:07;;;;;;;93.57;48.22;;;6.50;1.00;;;;;;5086289;28;20040;-74
2022/03/22 07:29:34;;;;;;;83.70;46.78;;;6.60;1.00;;;;;;5054492;28;20049;-74
2022/03/22 07:32:02;;;;;;;103.90;44.88;;;6.60;1.00;;;;;;5057980;28;20055;-73
2022/03/22 07:34:31;;;;;;;83.03;46.10;;;6.60;1.00;;;;;;5056411;28;20048;-73
2022/03/22 07:36:58;;;;;;;99.95;46.08;;;6.70;1.00;;;;;;5073420;28;20061;-73
2022/03/22 07:39:27;;;;;;;103.10;50.75;;;6.60;1.00;;;;;;5085703;28;20418;-74
2022/03/22 07:41:54;;;;;;;95.13;50.10;;;6.80;1.00;;;;;;5086474;28;20055;-73
2022/03/22 07:44:24;;;;;;;95.25;48.80;;;6.90;1.00;;;;;;5074784;28;20479;-73
2022/03/22 07:46:51;;;;;;;91.97;48.85;;;6.80;1.00;;;;;;5075129;28;20071;-75
2022/03/22 07:54:48;;;;;;;90.43;45.03;;;7.20;1.00;;;;;;5075132;28;20090;-73
2022/03/22 07:57:16;;;;;;;88.25;47.17;;;7.50;1.00;;;;;;5074871;28;20074;-72
2022/03/22 07:59:45;;;;;;;93.05;46.92;;;7.60;1.00;;;;;;5074437;28;20047;-72
2022/03/22 08:02:13;;;;;;;94.57;48.78;;;7.70;1.00;;;;;;5075083;28;20067;-72
2022/03/22 08:04:40;;;;;;;96.07;46.40;;;7.70;1.00;;;;;;5074208;28;20083;-72
2022/03/22 08:07:09;;;;;;;85.53;48.28;;;7.90;1.00;;;;;;5073269;28;20407;-72
2022/03/22 08:09:37;;;;;;;107.03;53.50;;;8.20;1.00;;;;;;5073172;28;20102;-72
2022/03/22 08:12:05;;;;;;;103.97;54.80;;;8.40;1.00;;;;;;5107824;28;20044;-73
2022/03/22 08:14:33;;;;;;;102.35;56.00;;;8.40;1.00;;;;;;5081929;28;20044;-72
2022/03/22 08:17:02;;;;;;;103.25;57.47;;;8.50;1.00;;;;;;5092376;28;20098;-74
2022/03/22 08:19:30;;;;;;;100.20;56.50;;;8.80;1.00;;;;;;5093707;28;20495;-73
2022/03/22 08:21:57;;;;;;;92.32;50.40;;;8.90;1.00;;;;;;5076916;28;20041;-73
2022/03/22 08:24:26;;;;;;;90.20;53.50;;;9.10;1.00;;;;;;5077403;28;20040;-73
2022/03/22 08:26:53;;;;;;;84.50;51.90;;;9.20;1.00;;;;;;5074880;28;20438;-73
2022/03/22 08:29:21;;;;;;;82.30;48.05;;;9.40;1.00;;;;;;5074114;28;20052;-73
2022/03/22 08:31:49;;;;;;;80.40;49.30;;;9.40;1.00;;;;;;5075158;28;20044;-72
2022/03/22 08:34:19;;;;;;;92.03;49.88;;;9.50;1.00;;;;;;5072801;28;20052;-73
2022/03/22 08:36:46;;;;;;;85.28;50.72;;;9.40;1.00;;;;;;5106940;28;20571;-73
2022/03/22 08:39:14;;;;;;;88.68;52.05;;;9.40;1.00;;;;;;5073333;28;20060;-73
2022/03/22 08:41:41;;;;;;;94.40;52.15;;;9.60;1.00;;;;;;5074135;28;20579;-72
2022/03/22 08:44:09;;;;;;;87.65;51.88;;;9.70;1.00;;;;;;5089477;28;20044;-72
2022/03/22 08:46:36;;;;;;;93.07;56.33;;;9.80;1.00;;;;;;5093897;28;20096;-73
2022/03/22 08:49:04;;;;;;;92.20;53.95;;;10.10;1.00;;;;;;5095599;28;20066;-73
2022/03/22 08:51:33;;;;;;;95.22;54.83;;;10.20;1.00;;;;;;5111726;28;20032;-73
2022/03/22 08:54:01;;;;;;;93.45;52.63;;;10.50;1.00;;;;;;5106560;28;20044;-73
2022/03/22 08:56:28;;;;;;;90.28;52.90;;;10.60;1.00;;;;;;5105018;28;20044;-74
2022/03/22 08:58:55;;;;;;;91.18;54.25;;;10.70;1.00;;;;;;5093775;28;20055;-74
2022/03/22 09:01:27;;;;;;;117.25;72.55;;;10.60;1.00;;;;;;5098130;28;20032;-73
2022/03/22 09:06:41;;;;;;;88.40;51.38;;;10.80;1.00;;;;;;5074336;28;20480;-73
2022/03/22 09:09:09;;;;;;;86.85;52.55;;;10.70;1.00;;;;;;5088923;28;20043;-73
2022/03/22 09:11:37;;;;;;;89.28;51.10;;;10.70;1.00;;;;;;5093674;28;20074;-73
2022/03/22 09:14:05;;;;;;;96.13;52.65;;;10.70;1.00;;;;;;5098163;28;20115;-74
2022/03/22 09:16:34;;;;;;;84.43;50.90;;;10.70;1.00;;;;;;5098015;28;20479;-73
2022/03/22 09:19:01;;;;;;;88.97;52.63;;;10.80;1.00;;;;;;5086589;28;20044;-73
2022/03/22 09:21:29;;;;;;;87.18;50.25;;;10.80;1.00;;;;;;5076913;28;20036;-72
2022/03/22 09:23:58;;;;;;;84.95;47.17;;;11.00;1.00;;;;;;5077941;28;20044;-74
2022/03/22 09:26:25;;;;;;;79.93;49.83;;;11.00;1.00;;;;;;5082440;28;20052;-73
2022/03/22 09:28:53;;;;;;;89.05;49.45;;;11.10;1.00;;;;;;5096626;28;20108;-73
2022/03/22 09:31:23;;;;;;;82.22;48.08;;;11.10;1.00;;;;;;5099691;28;20059;-74
2022/03/22 09:33:51;;;;;;;89.00;49.42;;;11.30;1.00;;;;;;5101296;28;20024;-73
2022/03/22 09:36:18;;;;;;;71.78;45.17;;;11.50;1.00;;;;;;5100664;28;20037;-74
2022/03/22 09:38:47;;;;;;;86.35;53.60;;;11.60;1.00;;;;;;5100060;28;20053;-73
2022/03/22 09:41:17;;;;;;;84.03;48.58;;;11.50;1.00;;;;;;5094468;28;20048;-74
2022/03/22 09:43:48;;;;;;;83.53;50.60;;;11.50;1.00;;;;;;5076945;28;20044;-73
2022/03/22 09:46:18;;;;;;;79.55;47.40;;;11.50;1.00;;;;;;5103010;28;20031;-72
2022/03/22 09:48:47;;;;;;;84.05;48.03;;;11.60;1.00;;;;;;5109409;28;20058;-73
2022/03/22 09:54:00;;;;;;;73.55;47.40;;;11.90;1.00;;;;;;5106633;28;20055;-72
2022/03/22 09:56:31;;;;;;;73.28;47.13;;;11.90;1.00;;;;;;5106487;28;20044;-73
2022/03/22 09:58:59;;;;;;;79.60;50.05;;;12.00;1.00;;;;;;5108510;28;20064;-73
2022/03/22 10:01:27;;;;;;;80.72;47.20;;;12.10;1.00;;;;;;5079051;28;20045;-74
2022/03/22 10:04:03;;;;;;;73.85;43.47;;;12.20;1.00;;;;;;5077568;28;20052;-75
2022/03/22 10:06:32;;;;;;;73.05;44.50;;;12.30;1.00;;;;;;5078039;28;20036;-74
2022/03/22 10:09:00;;;;;;;85.30;45.78;;;12.40;1.00;;;;;;5076947;28;20119;-72
2022/03/22 10:11:40;;;;;;;74.70;46.22;;;12.40;1.00;;;;;;5077166;28;20045;-74
2022/03/22 10:14:09;;;;;;;64.95;41.95;;;12.40;1.00;;;;;;5076758;28;20051;-75
2022/03/22 10:16:51;;;;;;;66.65;43.75;;;12.40;1.00;;;;;;5084597;28;20107;-73
2022/03/22 10:19:20;;;;;;;65.03;43.38;;;12.50;1.00;;;;;;5105952;28;20052;-74
2022/03/22 10:21:48;;;;;;;75.07;42.03;;;12.60;1.00;;;;;;5086256;28;20101;-74
2022/03/22 10:24:16;;;;;;;75.55;43.40;;;12.50;1.00;;;;;;5075203;28;20048;-74
2022/03/22 10:26:46;;;;;;;77.45;46.30;;;12.60;1.00;;;;;;5078033;28;20047;-73
2022/03/22 10:29:15;;;;;;;71.68;43.10;;;12.70;1.00;;;;;;5080063;28;20094;-73
2022/03/22 10:31:44;;;;;;;65.45;40.13;;;12.90;1.00;;;;;;5076709;28;20484;-73
2022/03/22 10:34:15;;;;;;;73.50;44.42;;;12.80;1.00;;;;;;5076609;28;20037;-74
2022/03/22 10:36:43;;;;;;;68.47;41.72;;;12.90;1.00;;;;;;5077229;28;20143;-74
2022/03/22 10:39:12;;;;;;;75.95;44.70;;;13.10;1.00;;;;;;5077033;28;20419;-74
2022/03/22 10:41:41;;;;;;;68.25;42.08;;;13.20;1.00;;;;;;5076222;28;20111;-74
2022/03/22 10:44:13;;;;;;;68.50;43.08;;;13.30;1.00;;;;;;5076017;28;20507;-73
2022/03/22 10:46:42;;;;;;;73.93;45.25;;;13.30;1.00;;;;;;5081460;28;20089;-74
2022/03/22 10:49:11;;;;;;;67.93;41.65;;;13.30;1.00;;;;;;5096933;28;20101;-74
2022/03/22 10:51:44;;;;;;;70.05;42.40;;;13.40;1.00;;;;;;5095707;28;20124;-73
2022/03/22 10:54:15;;;;;;;65.47;40.85;;;13.50;1.00;;;;;;5112477;28;20044;-73
2022/03/22 10:56:47;;;;;;;61.72;41.33;;;13.60;1.00;;;;;;5104605;28;20076;-73
2022/03/22 10:59:17;;;;;;;63.08;40.10;;;13.60;1.00;;;;;;5092453;28;20120;-73
2022/03/22 11:01:46;;;;;;;69.20;40.15;;;13.70;1.00;;;;;;5093419;28;20052;-74
2022/03/22 11:04:15;;;;;;;66.13;38.42;;;13.70;1.00;;;;;;5093000;28;20049;-74
2022/03/22 11:06:46;;;;;;;61.13;38.17;;;13.80;1.00;;;;;;5080050;28;20072;-74
2022/03/22 11:09:14;;;;;;;65.30;38.63;;;13.80;1.00;;;;;;5077514;28;20041;-74
2022/03/22 11:11:43;;;;;;;62.45;37.30;;;14.00;1.00;;;;;;5088718;28;20032;-73
2022/03/22 11:14:13;;;;;;;55.63;35.55;;;14.00;1.00;;;;;;5096217;28;20056;-74
2022/03/22 11:16:44;;;;;;;52.67;27.33;;;14.10;1.00;;;;;;5095360;28;20109;-74
2022/03/22 11:19:12;;;;;;;27.50;17.02;;;14.20;1.00;;;;;;5094424;28;20096;-74
2022/03/22 11:21:40;;;;;;;21.20;13.30;;;14.20;1.00;;;;;;5095808;28;20423;-74
2022/03/22 11:24:08;;;;;;;23.52;15.00;;;14.30;1.00;;;;;;5092842;28;20047;-74
2022/03/22 11:26:41;;;;;;;17.90;13.45;;;14.30;1.00;;;;;;5076936;28;20056;-74
2022/03/22 11:29:11;;;;;;;18.25;12.80;;;14.30;1.00;;;;;;5083221;28;20036;-74
2022/03/22 11:31:40;;;;;;;18.55;13.05;;;14.00;1.00;;;;;;5087308;28;20071;-73
2022/03/22 11:34:09;;;;;;;24.52;13.32;;;14.00;1.00;;;;;;5086929;28;20040;-73
2022/03/22 11:36:45;;;;;;;21.98;12.85;;;14.00;1.00;;;;;;5102031;22;20130;-76
2022/03/22 11:39:18;;;;;;;19.42;13.13;;;14.00;1.00;;;;;;5087112;28;20048;-75
2022/03/22 11:44:37;;;;;;;20.88;13.45;;;14.00;1.00;;;;;;5084915;28;20047;-76
2022/03/22 11:47:08;;;;;;;26.95;14.13;;;14.20;1.00;;;;;;5074721;28;20074;-74
2022/03/22 11:49:53;;;;;;;20.17;13.52;;;14.10;1.00;;;;;;5057013;28;20402;-75
2022/03/22 11:52:22;;;;;;;19.00;13.33;;;14.10;1.00;;;;;;5075565;28;20066;-74
2022/03/22 11:55:01;;;;;;;19.38;12.75;;;14.20;1.00;;;;;;5094895;28;20276;-74
2022/03/22 11:57:29;;;;;;;19.33;12.50;;;14.30;1.00;;;;;;5087387;28;20085;-74
2022/03/22 11:59:57;;;;;;;20.20;12.90;;;14.30;1.00;;;;;;5090112;28;20128;-74
2022/03/22 12:02:31;;;;;;;19.38;13.18;;;14.20;1.00;;;;;;5075185;28;20040;-75
2022/03/22 12:05:02;;;;;;;20.45;12.20;;;14.10;1.00;;;;;;5076266;28;20032;-74
2022/03/22 12:07:32;;;;;;;18.00;12.38;;;14.20;1.00;;;;;;5093887;28;20040;-76
2022/03/22 12:10:07;;;;;;;17.80;12.13;;;14.20;1.00;;;;;;5114604;28;20052;-74
2022/03/22 12:12:37;;;;;;;21.38;13.93;;;14.20;1.00;;;;;;5095674;28;20063;-74
2022/03/22 12:15:07;;;;;;;19.63;13.50;;;14.10;1.00;;;;;;5095213;28;20043;-75
2022/03/22 12:17:35;;;;;;;20.38;13.73;;;14.20;1.00;;;;;;5094999;28;20039;-75
2022/03/22 12:20:09;;;;;;;19.67;12.88;;;14.30;1.00;;;;;;5089839;28;20071;-75
2022/03/22 12:22:39;;;;;;;18.85;13.18;;;14.20;1.00;;;;;;5076315;28;20049;-75
2022/03/22 12:25:09;;;;;;;24.95;14.15;;;14.10;1.00;;;;;;5093916;28;20044;-74
2022/03/22 12:27:36;;;;;;;22.55;14.10;;;14.10;1.00;;;;;;5094113;28;20509;-75
2022/03/22 12:30:04;;;;;;;20.70;13.35;;;14.10;1.00;;;;;;5094346;28;20464;-75
2022/03/22 12:32:32;;;;;;;21.77;13.63;;;14.00;1.00;;;;;;5094817;28;20047;-77
2022/03/22 12:35:00;;;;;;;22.50;13.77;;;14.10;1.00;;;;;;5092920;28;20143;-76
2022/03/22 12:37:29;;;;;;;17.40;13.02;;;14.10;1.00;;;;;;5093496;28;20048;-75
2022/03/22 12:39:56;;;;;;;20.50;13.93;;;14.20;1.00;;;;;;5093949;28;20483;-75
2022/03/22 12:42:24;;;;;;;19.58;12.43;;;14.30;1.00;;;;;;5074269;28;20487;-75
2022/03/22 12:44:51;;;;;;;24.25;14.38;;;14.10;1.00;;;;;;5093756;28;20494;-76
2022/03/22 12:47:21;;;;;;;20.50;13.15;;;14.10;1.00;;;;;;5094308;28;20063;-76
2022/03/22 12:49:49;;;;;;;19.02;13.35;;;14.20;1.00;;;;;;5098143;28;20123;-76
2022/03/22 12:52:17;;;;;;;22.60;13.52;;;14.30;1.00;;;;;;5098478;28;20046;-76
2022/03/22 12:54:57;;;;;;;16.83;12.35;;;14.30;1.00;;;;;;5096224;28;20077;-75
2022/03/22 12:57:24;;;;;;;20.00;12.88;;;14.20;1.00;;;;;;5075972;28;20126;-75
2022/03/22 12:59:52;;;;;;;19.42;12.95;;;14.30;1.00;;;;;;5094283;28;20131;-76
2022/03/22 13:02:20;;;;;;;20.48;13.77;;;14.30;1.00;;;;;;5093125;28;20036;-75
2022/03/22 13:04:50;;;;;;;18.40;14.07;;;14.20;1.00;;;;;;5094568;28;20054;-75
2022/03/22 13:07:21;;;;;;;19.70;13.88;;;14.00;1.00;;;;;;5083586;28;20114;-76
2022/03/22 13:12:36;;;;;;;20.30;14.45;;;14.10;1.00;;;;;;5075570;28;20044;-77
2022/03/22 13:15:06;;;;;;;22.98;15.10;;;14.10;1.00;;;;;;5075045;28;20139;-75
2022/03/22 13:17:37;;;;;;;19.85;14.13;;;14.10;1.00;;;;;;5075508;28;20040;-75
2022/03/22 13:20:13;;;;;;;23.27;13.55;;;13.90;1.00;;;;;;5094052;28;20540;-75